Time;durP1;ratioP1;P1;durP2;ratioP2;P2;SDS_P1;SDS_P2;PMS_P1;PMS_P2;Temp;Humidity;BMP_temperature;BMP_pressure;BME280_temperature;BME280_humidity;BME280_pressure;Samples;Min_cycle;Max_cycle;Signal;HPM_P1;HPM_P2
2023/10/01 00:01:25;;;;;;;8.20;4.13;;;;;;;17.45;44.83;95314.09;5088676;28;20423;-76
2023/10/01 00:03:50;;;;;;;6.30;4.03;;;;;;;17.55;44.78;95340.59;5071494;28;20039;-78
2023/10/01 00:06:16;;;;;;;8.20;3.83;;;;;;;17.55;45.07;95339.78;5086266;28;20107;-77
2023/10/01 00:08:41;;;;;;;8.95;4.57;;;;;;;17.49;45.04;95325.78;5085864;28;20085;-78
2023/10/01 00:11:08;;;;;;;6.72;4.20;;;;;;;17.46;45.14;95330.28;5063545;28;20401;-76
2023/10/01 00:13:35;;;;;;;7.93;4.35;;;;;;;17.45;45.26;95330.75;5071163;28;20042;-78
2023/10/01 00:16:00;;;;;;;8.70;4.50;;;;;;;17.38;45.39;95320.00;5086986;28;20103;-79
2023/10/01 00:18:26;;;;;;;6.57;4.45;;;;;;;17.39;45.67;95335.44;5089547;28;20103;-77
2023/10/01 00:20:51;;;;;;;6.15;4.15;;;;;;;17.37;45.79;95333.09;5087324;28;20032;-78
2023/10/01 00:23:17;;;;;;;5.35;3.92;;;;;;;17.34;45.91;95331.28;5087522;28;20039;-76
2023/10/01 00:25:43;;;;;;;9.05;4.20;;;;;;;17.29;46.05;95331.16;5088095;28;20051;-78
2023/10/01 00:28:09;;;;;;;5.85;3.90;;;;;;;17.23;46.22;95337.34;5086454;28;20058;-77
2023/10/01 00:30:35;;;;;;;7.95;4.47;;;;;;;17.16;46.40;95336.94;5071765;28;20088;-77
2023/10/01 00:33:05;;;;;;;5.78;4.30;;;;;;;17.09;46.76;95324.16;5086589;28;20020;-77
2023/10/01 00:35:30;;;;;;;8.27;4.60;;;;;;;17.08;46.69;95336.50;5088217;28;20028;-77
2023/10/01 00:37:55;;;;;;;5.07;4.28;;;;;;;17.07;46.85;95334.97;5088374;28;20738;-77
2023/10/01 00:40:21;;;;;;;6.70;4.70;;;;;;;16.98;46.98;95329.47;5087818;28;20051;-77
2023/10/01 00:42:47;;;;;;;7.28;4.70;;;;;;;16.90;46.99;95329.00;5088044;28;20118;-77
2023/10/01 00:45:15;;;;;;;9.30;4.50;;;;;;;16.88;47.09;95328.72;5086290;28;20098;-77
2023/10/01 00:47:44;;;;;;;7.57;4.53;;;;;;;16.87;47.24;95331.97;5089606;28;20024;-77
2023/10/01 00:50:11;;;;;;;8.00;4.57;;;;;;;16.81;47.43;95331.84;5086004;28;20517;-77
2023/10/01 00:52:37;;;;;;;7.47;4.32;;;;;;;16.78;47.50;95329.22;5088094;28;20024;-77
2023/10/01 00:55:05;;;;;;;6.53;4.53;;;;;;;16.78;47.70;95334.78;5069289;28;20127;-77
2023/10/01 00:57:31;;;;;;;7.38;4.13;;;;;;;16.71;47.85;95333.88;5088977;28;20069;-78
2023/10/01 00:59:56;;;;;;;8.25;4.70;;;;;;;16.69;48.21;95325.22;5088702;28;20428;-77
2023/10/01 01:02:22;;;;;;;7.20;4.45;;;;;;;16.66;48.00;95331.69;5086436;28;20063;-77
2023/10/01 01:05:05;;;;;;;8.13;4.40;;;;;;;16.63;48.03;95332.63;5089161;28;20579;-77
2023/10/01 01:07:40;;;;;;;9.40;5.97;;;;;;;16.54;48.34;95326.34;5085410;28;20024;-76
2023/10/01 01:10:06;;;;;;;8.32;4.68;;;;;;;16.46;48.38;95323.13;5087764;28;20047;-77
2023/10/01 01:12:32;;;;;;;8.32;4.47;;;;;;;16.47;48.77;95327.44;5087215;28;20028;-76
2023/10/01 01:14:58;;;;;;;10.65;4.72;;;;;;;16.44;48.65;95328.34;5088490;28;20025;-78
2023/10/01 01:17:27;;;;;;;7.32;4.53;;;;;;;16.37;48.97;95323.13;5087012;28;20020;-77
2023/10/01 01:19:53;;;;;;;5.63;4.60;;;;;;;16.36;48.79;95333.47;5069733;28;20127;-78
2023/10/01 01:22:28;;;;;;;6.50;4.60;;;;;;;16.26;48.54;95322.84;5087381;28;20103;-77
2023/10/01 01:24:57;;;;;;;8.32;4.72;;;;;;;16.23;48.55;95320.97;5085748;28;20432;-78
2023/10/01 01:27:23;;;;;;;9.27;5.10;;;;;;;16.22;48.35;95322.22;5086961;28;20024;-78
2023/10/01 01:29:50;;;;;;;8.45;4.50;;;;;;;16.24;48.05;95331.63;5085445;28;20035;-79
2023/10/01 01:32:16;;;;;;;6.55;4.55;;;;;;;16.25;48.27;95326.84;5069229;28;20485;-76
2023/10/01 01:34:45;;;;;;;8.57;5.78;;;;;;;16.17;48.13;95324.41;5083063;28;20032;-77
2023/10/01 01:37:36;;;;;;;6.55;4.40;;;;;;;16.14;48.73;95324.56;5086188;28;20043;-77
2023/10/01 01:40:09;;;;;;;5.63;4.22;;;;;;;16.07;48.45;95322.88;5073726;28;20085;-76
2023/10/01 01:42:34;;;;;;;7.05;4.90;;;;;;;16.04;48.77;95328.56;5085286;28;20063;-77
2023/10/01 01:48:00;;;;;;;9.07;4.85;;;;;;;15.95;48.78;95329.34;5033427;28;20025;-78
2023/10/01 01:50:26;;;;;;;6.15;4.70;;;;;;;15.88;49.13;95324.09;5027295;28;20029;-76
2023/10/01 01:52:53;;;;;;;7.68;4.65;;;;;;;15.82;49.17;95318.38;5029019;28;20048;-77
2023/10/01 01:55:23;;;;;;;7.03;4.85;;;;;;;15.85;49.35;95325.03;5026750;28;20103;-76
2023/10/01 01:58:08;;;;;;;6.78;4.38;;;;;;;15.80;49.67;95317.31;5029055;28;20530;-78
2023/10/01 02:03:33;;;;;;;6.25;4.28;;;;;;;15.74;49.43;95314.41;5029568;28;20218;-77
2023/10/01 02:05:59;;;;;;;7.35;4.38;;;;;;;15.71;49.80;95311.78;5045281;28;20033;-77
2023/10/01 02:08:34;;;;;;;6.47;4.22;;;;;;;15.69;49.60;95314.25;5026388;28;20515;-77
2023/10/01 02:11:04;;;;;;;9.52;5.22;;;;;;;15.72;49.81;95313.34;5029670;28;20082;-78
2023/10/01 02:13:30;;;;;;;5.90;4.13;;;;;;;15.66;49.72;95311.16;5027545;28;20040;-78
2023/10/01 02:15:56;;;;;;;9.45;4.95;;;;;;;15.64;49.98;95313.63;5010942;28;20052;-77
2023/10/01 02:18:21;;;;;;;8.13;4.75;;;;;;;15.58;50.34;95315.44;5011418;28;20048;-77
2023/10/01 02:20:51;;;;;;;6.82;5.28;;;;;;;15.52;50.45;95311.72;5025395;28;20032;-77
2023/10/01 02:23:25;;;;;;;8.65;4.72;;;;;;;15.47;49.98;95311.56;5069896;28;20455;-76
2023/10/01 02:25:51;;;;;;;6.03;4.65;;;;;;;15.48;50.52;95318.66;5068647;28;20035;-76
2023/10/01 02:28:17;;;;;;;8.30;4.70;;;;;;;15.45;50.29;95311.25;5068940;28;20583;-77
2023/10/01 02:30:44;;;;;;;9.13;5.10;;;;;;;15.40;50.31;95309.88;5084689;28;20069;-77
2023/10/01 02:33:17;;;;;;;9.88;5.03;;;;;;;15.35;50.33;95319.56;5085354;28;20032;-76
2023/10/01 02:35:58;;;;;;;9.05;5.15;;;;;;;15.32;50.42;95308.63;5069013;28;20078;-77
2023/10/01 02:41:08;;;;;;;7.65;4.97;;;;;;;15.26;50.74;95304.94;5087494;28;20039;-77
2023/10/01 02:43:34;;;;;;;8.30;5.10;;;;;;;15.22;50.74;95310.59;5085406;28;20032;-76
2023/10/01 02:46:07;;;;;;;5.93;4.85;;;;;;;15.14;50.73;95307.38;5068420;28;20107;-77
2023/10/01 02:48:34;;;;;;;8.48;4.95;;;;;;;15.16;50.98;95311.66;5084893;28;20483;-77
2023/10/01 02:51:14;;;;;;;6.90;4.80;;;;;;;15.14;50.78;95314.91;5067283;28;20467;-79
2023/10/01 02:54:01;;;;;;;7.78;4.93;;;;;;;15.08;51.08;95306.44;5085402;28;20056;-78
2023/10/01 02:56:33;;;;;;;8.90;4.75;;;;;;;15.02;51.14;95313.00;5083871;28;20510;-78
2023/10/01 02:59:13;;;;;;;6.88;4.97;;;;;;;15.02;51.01;95307.47;5086536;28;20491;-77
2023/10/01 03:01:42;;;;;;;12.68;5.88;;;;;;;14.95;51.22;95314.06;5084964;28;20049;-77
2023/10/01 03:04:14;;;;;;;11.07;6.43;;;;;;;14.88;51.33;95311.56;5083937;28;20032;-78
2023/10/01 03:06:52;;;;;;;6.75;5.18;;;;;;;14.86;51.44;95314.03;5085499;28;20028;-77
2023/10/01 03:09:34;;;;;;;9.48;4.93;;;;;;;14.81;51.56;95312.63;5068794;28;20028;-78
2023/10/01 03:15:00;;;;;;;8.50;5.18;;;;;;;14.80;51.78;95313.88;5085459;28;20115;-77
2023/10/01 03:17:38;;;;;;;8.43;5.45;;;;;;;14.77;51.60;95319.53;5083758;28;20493;-76
2023/10/01 03:22:53;;;;;;;9.25;4.97;;;;;;;14.71;51.62;95305.50;5084412;28;20140;-77
2023/10/01 03:25:28;;;;;;;10.60;5.45;;;;;;;14.71;51.66;95313.81;5084403;28;20028;-77
2023/10/01 03:27:59;;;;;;;7.80;4.97;;;;;;;14.70;51.95;95317.03;5083974;28;20048;-76
2023/10/01 03:30:31;;;;;;;14.73;5.28;;;;;;;14.70;51.81;95326.13;5082314;28;20517;-76
2023/10/01 03:33:01;;;;;;;9.03;5.23;;;;;;;14.64;51.90;95305.81;5068903;28;20039;-77
2023/10/01 03:35:27;;;;;;;11.98;6.00;;;;;;;14.64;51.91;95310.56;5085105;28;20043;-76
2023/10/01 03:38:09;;;;;;;10.73;5.47;;;;;;;14.61;52.02;95309.47;5067728;28;20441;-78
2023/10/01 03:40:36;;;;;;;6.35;4.75;;;;;;;14.57;52.01;95312.38;5084910;28;20046;-77
2023/10/01 03:43:04;;;;;;;8.57;5.20;;;;;;;14.56;52.04;95324.66;5083480;28;20040;-77
2023/10/01 03:47:58;;;;;;;9.38;5.45;;;;;;;14.53;52.30;95322.81;5083472;28;20028;-78
2023/10/01 03:50:31;;;;;;;9.05;5.97;;;;;;;14.54;52.42;95323.56;5085353;28;20028;-78
2023/10/01 03:52:59;;;;;;;9.10;6.32;;;;;;;14.51;52.57;95316.97;5083676;28;20024;-77
2023/10/01 03:58:18;;;;;;;11.43;5.63;;;;;;;14.49;52.44;95324.94;5084116;28;20109;-76
2023/10/01 04:00:53;;;;;;;8.52;5.65;;;;;;;14.50;52.67;95322.94;5081850;28;20035;-77
2023/10/01 04:03:21;;;;;;;9.82;5.75;;;;;;;14.46;52.95;95328.59;5085083;28;20066;-78
2023/10/01 04:05:47;;;;;;;8.05;5.40;;;;;;;14.43;52.72;95331.47;5083029;28;20546;-76
2023/10/01 04:08:16;;;;;;;11.45;6.03;;;;;;;14.43;52.98;95339.78;5084615;28;20024;-78
2023/10/01 04:10:42;;;;;;;8.35;5.95;;;;;;;14.34;53.08;95326.69;5084339;28;20039;-78
2023/10/01 04:13:27;;;;;;;10.18;6.25;;;;;;;14.39;53.18;95339.13;5083408;28;20020;-76
2023/10/01 04:15:56;;;;;;;11.40;6.60;;;;;;;14.38;52.99;95330.06;5085192;28;20423;-78
2023/10/01 04:18:23;;;;;;;11.85;6.72;;;;;;;14.39;53.28;95337.13;5081618;28;20077;-77
2023/10/01 04:23:30;;;;;;;12.68;6.60;;;;;;;14.37;53.27;95325.00;5085269;28;20450;-77
2023/10/01 04:25:56;;;;;;;10.17;6.23;;;;;;;14.29;53.48;95318.97;5083988;28;20032;-77
2023/10/01 04:28:23;;;;;;;10.88;6.78;;;;;;;14.33;53.03;95331.41;5084363;28;20134;-77
2023/10/01 04:30:51;;;;;;;10.05;5.97;;;;;;;14.33;52.90;95338.94;5082874;28;20417;-77
2023/10/01 04:33:23;;;;;;;10.13;6.72;;;;;;;14.34;52.98;95332.22;5067952;28;20082;-77
2023/10/01 04:35:55;;;;;;;11.65;6.07;;;;;;;14.38;53.05;95335.59;5066317;28;20039;-78
2023/10/01 04:38:32;;;;;;;9.55;6.20;;;;;;;14.47;52.83;95334.91;5084645;28;20093;-77
2023/10/01 04:41:03;;;;;;;7.35;5.55;;;;;;;14.53;52.58;95342.16;5067795;28;20028;-77
2023/10/01 04:43:35;;;;;;;10.65;5.70;;;;;;;14.62;52.62;95346.97;5084719;28;20020;-78
2023/10/01 04:46:08;;;;;;;7.95;5.30;;;;;;;14.71;52.42;95354.56;5071806;28;20497;-77
2023/10/01 04:48:34;;;;;;;7.88;5.07;;;;;;;14.73;52.46;95349.31;5069904;28;20062;-77
2023/10/01 04:51:02;;;;;;;8.00;5.10;;;;;;;14.78;52.36;95355.03;5087917;28;20547;-77
2023/10/01 04:53:28;;;;;;;6.68;4.88;;;;;;;14.83;52.14;95357.22;5087188;28;20502;-77
2023/10/01 04:56:00;;;;;;;9.30;5.13;;;;;;;14.85;52.35;95359.53;5070586;28;20028;-78
2023/10/01 04:58:26;;;;;;;8.77;4.93;;;;;;;14.95;52.37;95358.34;5087490;28;20028;-78
2023/10/01 05:00:54;;;;;;;9.50;5.30;;;;;;;14.93;52.23;95366.34;5087807;28;20028;-76
2023/10/01 05:03:36;;;;;;;6.43;4.63;;;;;;;15.00;52.35;95366.06;5087614;28;20028;-77
2023/10/01 05:06:02;;;;;;;7.18;5.18;;;;;;;15.00;52.08;95371.59;5071093;28;20035;-76
2023/10/01 05:08:38;;;;;;;13.07;5.30;;;;;;;15.09;52.12;95376.41;5087866;28;20020;-76
2023/10/01 05:11:10;;;;;;;8.05;5.38;;;;;;;15.05;52.15;95371.00;5086224;28;20081;-77
2023/10/01 05:13:39;;;;;;;9.32;5.78;;;;;;;15.09;52.12;95371.66;5088063;28;20059;-77
2023/10/01 05:16:06;;;;;;;8.50;5.43;;;;;;;15.13;51.87;95377.03;5087428;28;20447;-77
2023/10/01 05:18:33;;;;;;;8.60;5.40;;;;;;;15.22;51.91;95381.84;5069244;28;20028;-76
2023/10/01 05:20:59;;;;;;;7.00;5.10;;;;;;;15.25;51.74;95390.00;5087805;28;20372;-78
2023/10/01 05:23:25;;;;;;;10.05;5.20;;;;;;;15.28;51.74;95399.41;5087517;28;20024;-77
2023/10/01 05:25:51;;;;;;;9.38;5.97;;;;;;;15.23;51.75;95388.91;5087624;28;20055;-76
2023/10/01 05:28:31;;;;;;;12.90;5.85;;;;;;;15.27;51.66;95393.09;5087235;28;20079;-77
2023/10/01 05:31:08;;;;;;;13.15;5.30;;;;;;;15.38;51.51;95400.97;5087646;28;20028;-77
2023/10/01 05:33:34;;;;;;;9.30;5.30;;;;;;;15.32;51.44;95397.28;5087218;28;20038;-78
2023/10/01 05:36:06;;;;;;;12.63;6.13;;;;;;;15.32;51.53;95403.56;5085786;28;20111;-77
2023/10/01 05:38:36;;;;;;;7.95;5.47;;;;;;;15.40;51.69;95401.28;5087677;28;20059;-77
2023/10/01 05:41:09;;;;;;;7.28;5.57;;;;;;;15.45;51.34;95411.00;5068411;28;20028;-78
2023/10/01 05:43:37;;;;;;;10.25;5.47;;;;;;;15.50;51.33;95408.41;5086941;28;20494;-76
2023/10/01 05:46:08;;;;;;;10.15;5.45;;;;;;;15.56;51.20;95414.13;5086601;28;20347;-78
2023/10/01 05:48:39;;;;;;;9.35;5.60;;;;;;;15.60;51.00;95404.44;5086017;28;20520;-77
2023/10/01 05:51:14;;;;;;;8.70;5.43;;;;;;;15.65;50.99;95403.06;5086943;28;20097;-77
2023/10/01 05:53:41;;;;;;;8.75;5.38;;;;;;;15.74;50.98;95405.09;5068245;28;20031;-77
2023/10/01 05:56:07;;;;;;;8.55;5.85;;;;;;;15.74;50.71;95413.41;5086586;28;20024;-78
2023/10/01 05:58:33;;;;;;;14.50;5.97;;;;;;;15.78;51.09;95405.72;5085631;28;20103;-78
2023/10/01 06:01:05;;;;;;;8.75;5.75;;;;;;;15.79;50.86;95401.72;5068839;28;20016;-76
2023/10/01 06:03:31;;;;;;;12.45;7.03;;;;;;;15.84;51.22;95412.19;5086555;28;20024;-77
2023/10/01 06:05:59;;;;;;;7.53;6.00;;;;;;;15.84;51.27;95401.88;5085042;28;20020;-77
2023/10/01 06:08:44;;;;;;;7.45;5.57;;;;;;;15.98;51.78;95394.94;5085660;28;20034;-77
2023/10/01 06:11:13;;;;;;;9.65;6.55;;;;;;;16.09;52.01;95406.34;5070007;28;20020;-78
2023/10/01 06:13:48;;;;;;;10.52;6.78;;;;;;;16.13;52.27;95409.00;5086099;28;20035;-78
2023/10/01 06:16:25;;;;;;;10.55;6.45;;;;;;;16.17;52.64;95399.28;5069872;28;20028;-77
2023/10/01 06:18:57;;;;;;;11.80;6.20;;;;;;;16.24;52.35;95398.22;5068821;28;20471;-78
2023/10/01 06:21:32;;;;;;;11.50;6.78;;;;;;;16.34;52.33;95405.28;5086138;28;20020;-78
2023/10/01 06:23:58;;;;;;;12.13;7.30;;;;;;;16.36;52.21;95400.03;5084526;28;20093;-78
2023/10/01 06:26:37;;;;;;;10.32;6.70;;;;;;;16.47;52.30;95396.81;5086048;28;20020;-79
2023/10/01 06:29:07;;;;;;;10.55;6.78;;;;;;;16.55;52.21;95395.25;5085135;28;20415;-78
2023/10/01 06:34:23;;;;;;;10.77;6.80;;;;;;;16.71;51.99;95402.50;5085974;28;20088;-79
2023/10/01 06:36:56;;;;;;;11.40;7.10;;;;;;;16.77;51.94;95399.84;5084164;28;20518;-77
2023/10/01 06:39:23;;;;;;;11.90;8.00;;;;;;;16.85;51.52;95398.28;5069196;28;20039;-78
2023/10/01 06:41:49;;;;;;;12.27;6.78;;;;;;;16.96;51.73;95404.13;5084613;28;20032;-77
2023/10/01 06:44:15;;;;;;;12.10;7.65;;;;;;;17.10;51.48;95406.25;5085443;28;20027;-77
2023/10/01 06:46:41;;;;;;;9.40;7.65;;;;;;;17.23;51.34;95406.81;5085383;28;20043;-78
2023/10/01 06:49:08;;;;;;;11.05;7.25;;;;;;;17.27;51.27;95405.88;5067976;28;20168;-78
2023/10/01 06:51:55;;;;;;;11.02;7.20;;;;;;;17.42;51.16;95429.72;5085387;28;20048;-78
2023/10/01 06:54:22;;;;;;;10.05;7.40;;;;;;;17.49;50.89;95428.59;5083569;28;20044;-79
2023/10/01 06:56:47;;;;;;;11.98;8.32;;;;;;;17.52;51.09;95422.88;5085842;28;20028;-77
2023/10/01 06:59:17;;;;;;;10.45;7.55;;;;;;;17.68;50.87;95435.63;5084643;28;20097;-77
2023/10/01 07:01:47;;;;;;;10.68;8.25;;;;;;;17.76;50.71;95436.84;5084757;28;20022;-78
2023/10/01 07:04:17;;;;;;;12.80;8.02;;;;;;;17.87;50.75;95430.00;5068737;28;20529;-77
2023/10/01 07:06:50;;;;;;;10.52;7.72;;;;;;;17.92;50.79;95432.13;5083191;28;20028;-77
2023/10/01 07:09:27;;;;;;;10.30;7.70;;;;;;;18.05;50.87;95435.44;5086036;28;20429;-78
2023/10/01 07:11:58;;;;;;;12.77;7.70;;;;;;;18.14;50.63;95437.41;5084017;28;20037;-77
2023/10/01 07:14:38;;;;;;;12.60;7.43;;;;;;;18.23;50.63;95448.44;5068465;28;20417;-79
2023/10/01 07:17:09;;;;;;;13.48;7.60;;;;;;;18.26;50.58;95428.03;5070579;28;20028;-78
2023/10/01 07:19:35;;;;;;;13.00;8.18;;;;;;;18.43;50.62;95436.72;5067075;28;20035;-78
2023/10/01 07:22:06;;;;;;;12.27;8.45;;;;;;;18.54;50.14;95450.84;5085262;28;20032;-78
2023/10/01 07:24:33;;;;;;;9.80;7.82;;;;;;;18.65;49.97;95441.94;5085000;28;20082;-78
2023/10/01 07:27:06;;;;;;;11.15;7.95;;;;;;;18.73;49.81;95443.13;5085245;28;20066;-80
2023/10/01 07:29:36;;;;;;;12.90;8.65;;;;;;;18.87;49.41;95431.25;5083861;28;20044;-80
2023/10/01 07:32:07;;;;;;;12.60;8.02;;;;;;;19.03;49.56;95441.88;5085919;28;20036;-80
2023/10/01 07:34:39;;;;;;;14.88;8.15;;;;;;;19.14;49.58;95438.53;5084486;28;20032;-79
2023/10/01 07:37:08;;;;;;;12.82;8.25;;;;;;;19.27;48.85;95444.59;5083809;28;20020;-79
2023/10/01 07:39:35;;;;;;;16.17;8.52;;;;;;;19.42;48.85;95438.97;5068123;28;20035;-78
2023/10/01 07:42:04;;;;;;;13.65;9.35;;;;;;;19.54;48.28;95440.69;5083272;28;20038;-79
2023/10/01 07:44:35;;;;;;;12.60;8.27;;;;;;;19.74;47.90;95447.63;5084476;28;20038;-78
2023/10/01 07:47:02;;;;;;;14.45;8.23;;;;;;;19.85;47.67;95445.00;5084080;28;20030;-79
2023/10/01 07:49:46;;;;;;;12.73;8.38;;;;;;;19.98;47.29;95442.63;5084095;28;20107;-79
2023/10/01 07:52:14;;;;;;;13.38;7.45;;;;;;;20.10;47.27;95432.38;5085102;28;20024;-78
2023/10/01 07:54:39;;;;;;;13.88;8.02;;;;;;;20.24;46.37;95439.91;5065932;28;20478;-79
2023/10/01 07:57:08;;;;;;;14.60;8.40;;;;;;;20.44;46.67;95439.16;5067695;28;20115;-77
2023/10/01 07:59:34;;;;;;;16.05;8.65;;;;;;;20.62;46.25;95444.47;5084553;28;20410;-78
2023/10/01 08:04:58;;;;;;;15.63;8.88;;;;;;;21.00;46.19;95434.19;5084475;28;20031;-79
2023/10/01 08:07:39;;;;;;;15.75;9.30;;;;;;;21.23;46.00;95449.13;5067321;28;20024;-77
2023/10/01 08:10:13;;;;;;;17.80;9.35;;;;;;;21.41;45.68;95429.22;5085131;28;20092;-79
2023/10/01 08:17:54;;;;;;;15.48;9.68;;;;;;;22.25;44.59;95451.41;5086068;28;20033;-78
2023/10/01 08:20:31;;;;;;;17.65;10.13;;;;;;;22.39;43.77;95439.25;5070703;28;20063;-79
2023/10/01 08:23:23;;;;;;;15.32;9.40;;;;;;;22.74;43.38;95443.69;5088520;28;20024;-78
2023/10/01 08:25:51;;;;;;;14.75;8.75;;;;;;;23.12;43.27;95442.28;5087215;28;20035;-77
2023/10/01 08:31:01;;;;;;;12.77;8.60;;;;;;;23.66;41.29;95436.47;5088889;28;20024;-77
2023/10/01 08:33:32;;;;;;;13.98;8.38;;;;;;;23.97;40.60;95434.63;5087053;28;20020;-79
2023/10/01 08:36:14;;;;;;;12.77;8.88;;;;;;;24.22;39.92;95427.94;5070963;28;20039;-79
2023/10/01 08:38:47;;;;;;;12.80;8.18;;;;;;;24.54;39.49;95427.56;5087099;28;20045;-79
2023/10/01 08:41:32;;;;;;;13.70;8.23;;;;;;;24.82;38.91;95433.06;5070958;28;20515;-78
2023/10/01 08:44:09;;;;;;;18.05;8.93;;;;;;;25.16;38.38;95434.41;5073189;28;20513;-79
2023/10/01 08:46:39;;;;;;;15.00;8.55;;;;;;;25.50;37.46;95439.03;5086638;28;20036;-79
2023/10/01 08:49:23;;;;;;;12.45;8.50;;;;;;;25.73;36.34;95439.59;5088050;28;20729;-79
2023/10/01 08:51:52;;;;;;;12.45;7.82;;;;;;;25.97;35.63;95433.25;5087139;28;20103;-78
2023/10/01 08:54:23;;;;;;;16.13;8.30;;;;;;;26.19;35.36;95435.84;5087098;28;20506;-78
2023/10/01 08:56:49;;;;;;;13.18;7.70;;;;;;;26.38;34.69;95447.16;5070896;28;20020;-79
2023/10/01 08:59:23;;;;;;;11.40;7.28;;;;;;;26.59;33.97;95441.81;5087923;28;20028;-79
2023/10/01 09:01:52;;;;;;;13.13;8.25;;;;;;;26.82;34.12;95433.81;5089086;28;20489;-81
2023/10/01 09:04:29;;;;;;;11.45;7.00;;;;;;;27.07;33.63;95434.53;5087639;28;20035;-80
2023/10/01 09:07:03;;;;;;;12.57;7.68;;;;;;;27.30;33.10;95434.97;5087004;28;20817;-80
2023/10/01 09:09:51;;;;;;;12.50;7.53;;;;;;;27.59;33.16;95441.72;5087610;28;20052;-79
2023/10/01 09:12:19;;;;;;;13.35;7.13;;;;;;;27.84;32.45;95439.50;5086629;28;20031;-79
2023/10/01 09:14:46;;;;;;;13.00;7.22;;;;;;;28.07;31.58;95434.22;5088302;28;20032;-79
2023/10/01 09:17:24;;;;;;;12.85;6.82;;;;;;;28.29;30.91;95437.41;5086101;28;20187;-79
2023/10/01 09:19:51;;;;;;;13.52;7.43;;;;;;;28.63;30.02;95438.84;5086907;28;20051;-79
2023/10/01 09:25:14;;;;;;;13.63;7.07;;;;;;;29.95;28.06;95438.41;5087430;28;20371;-79
2023/10/01 09:28:03;;;;;;;14.55;8.65;;;;;;;30.52;27.40;95449.78;5088681;28;20481;-79
2023/10/01 09:30:33;;;;;;;13.90;9.15;;;;;;;31.16;25.70;95445.38;5068914;28;20100;-78
2023/10/01 09:33:05;;;;;;;14.48;9.90;;;;;;;31.88;24.99;95458.66;5086863;28;20446;-79
2023/10/01 09:35:57;;;;;;;19.48;10.52;;;;;;;32.44;24.82;95445.38;5087004;28;20115;-79
2023/10/01 09:38:27;;;;;;;18.90;11.35;;;;;;;32.83;24.50;95448.91;5085819;28;20028;-78
2023/10/01 09:40:54;;;;;;;17.77;11.15;;;;;;;33.24;23.17;95448.38;5070955;28;20029;-79
2023/10/01 09:43:24;;;;;;;16.73;10.82;;;;;;;33.47;23.05;95442.56;5068815;28;20047;-79
2023/10/01 09:45:51;;;;;;;15.88;10.45;;;;;;;33.81;22.22;95444.06;5070649;28;20035;-79
2023/10/01 09:48:37;;;;;;;16.20;9.65;;;;;;;34.42;21.90;95437.13;5086265;28;20037;-79
2023/10/01 09:51:11;;;;;;;15.88;10.00;;;;;;;34.98;21.74;95438.25;5085509;28;20028;-79
2023/10/01 09:53:50;;;;;;;15.13;9.73;;;;;;;35.11;21.30;95440.78;5070284;28;20036;-80
2023/10/01 09:56:26;;;;;;;18.70;8.70;;;;;;;35.56;20.68;95447.28;5086213;28;20089;-79
2023/10/01 09:58:59;;;;;;;11.40;8.13;;;;;;;36.07;20.03;95442.72;5087053;28;20035;-81
2023/10/01 10:01:30;;;;;;;10.20;7.30;;;;;;;36.56;19.52;95437.88;5069869;28;20490;-79
2023/10/01 10:03:59;;;;;;;10.27;6.63;;;;;;;36.77;18.98;95442.28;5085783;28;20503;-79
2023/10/01 10:06:25;;;;;;;10.05;6.75;;;;;;;37.06;18.65;95440.19;5070030;28;20028;-79
2023/10/01 10:09:03;;;;;;;12.90;7.97;;;;;;;37.02;18.68;95434.16;5068272;28;20048;-78
2023/10/01 10:11:40;;;;;;;10.75;7.35;;;;;;;37.33;18.32;95430.63;5086585;28;20028;-79
2023/10/01 10:14:29;;;;;;;11.27;7.75;;;;;;;37.40;17.75;95432.63;5085266;28;20387;-79
2023/10/01 10:23:29;;;;;;;10.93;7.05;;;;;;;38.16;17.34;95412.91;5087117;28;20119;-81
2023/10/01 10:26:13;;;;;;;11.30;6.72;;;;;;;38.73;17.13;95414.69;4987362;28;20492;-78
2023/10/01 10:28:55;;;;;;;13.90;7.25;;;;;;;38.82;16.65;95401.63;4988732;28;20042;-79
2023/10/01 10:31:30;;;;;;;12.57;6.75;;;;;;;39.08;16.58;95402.59;5004016;28;20484;-79
2023/10/01 10:34:21;;;;;;;11.05;7.05;;;;;;;39.37;16.27;95395.84;4988495;28;20041;-79
2023/10/01 10:36:53;;;;;;;11.18;6.97;;;;;;;39.57;16.10;95394.25;4988818;28;20168;-80
2023/10/01 10:39:44;;;;;;;9.63;6.28;;;;;;;39.59;15.91;95388.66;5002646;28;20177;-80
2023/10/01 10:42:28;;;;;;;11.57;7.13;;;;;;;39.46;16.19;95392.13;5003827;28;20041;-80
2023/10/01 10:45:24;;;;;;;10.20;7.15;;;;;;;39.91;15.66;95389.19;4988350;28;20472;-80
2023/10/01 10:47:58;;;;;;;10.65;6.63;;;;;;;39.88;15.93;95387.56;5003877;28;20061;-80
2023/10/01 10:50:49;;;;;;;11.05;6.82;;;;;;;39.37;16.40;95382.22;5004867;28;20136;-80
2023/10/01 10:53:15;;;;;;;9.95;6.60;;;;;;;38.98;16.93;95379.69;5003624;28;20591;-83
2023/10/01 10:56:07;;;;;;;11.48;6.97;;;;;;;39.19;16.21;95372.44;5003384;28;20026;-81
2023/10/01 10:59:01;;;;;;;10.13;7.45;;;;;;;39.57;16.24;95374.13;4969337;28;20508;-81
2023/10/01 11:01:43;;;;;;;10.85;6.90;;;;;;;39.69;16.10;95374.19;5084994;28;20028;-82
2023/10/01 11:04:09;;;;;;;11.73;7.75;;;;;;;38.96;16.52;95367.34;5085064;28;20028;-82
2023/10/01 11:06:42;;;;;;;12.27;7.03;;;;;;;39.01;16.43;95369.09;5084957;28;20040;-81
2023/10/01 11:09:25;;;;;;;11.18;8.00;;;;;;;37.46;17.93;95370.00;5084595;28;20322;-79
2023/10/01 11:11:52;;;;;;;12.90;7.30;;;;;;;36.00;19.09;95369.19;5069498;28;20031;-80
2023/10/01 11:14:19;;;;;;;11.75;6.75;;;;;;;34.60;20.58;95362.38;5083482;28;20066;-81
2023/10/01 11:16:46;;;;;;;11.18;6.90;;;;;;;33.97;21.37;95353.50;5085162;28;20032;-80
2023/10/01 11:19:13;;;;;;;13.40;6.68;;;;;;;33.31;22.21;95364.19;5083953;28;20123;-83
2023/10/01 11:21:55;;;;;;;15.18;7.13;;;;;;;32.59;23.00;95357.16;5067358;28;20028;-80
2023/10/01 11:24:29;;;;;;;9.00;6.83;;;;;;;31.93;23.92;95361.06;5085574;28;20028;-81
2023/10/01 11:27:43;;;;;;;12.90;7.50;;;;;;;31.07;24.77;95361.50;5083815;28;20579;-79
2023/10/01 11:30:15;;;;;;;10.50;6.80;;;;;;;30.23;26.18;95352.66;5084931;28;20051;-79
2023/10/01 11:33:12;;;;;;;10.35;6.80;;;;;;;29.29;27.52;95348.09;5068467;28;20047;-79
2023/10/01 11:36:06;;;;;;;13.38;7.53;;;;;;;28.78;28.43;95349.25;5084693;28;20050;-79
2023/10/01 11:38:33;;;;;;;12.20;7.13;;;;;;;28.40;28.81;95350.88;5085875;28;20027;-79
2023/10/01 11:41:06;;;;;;;11.20;7.10;;;;;;;28.12;29.40;95343.69;5084105;28;20028;-79
2023/10/01 11:43:58;;;;;;;13.05;7.18;;;;;;;27.81;29.99;95324.78;5067309;28;20030;-79
2023/10/01 11:46:57;;;;;;;9.43;6.22;;;;;;;27.72;29.82;95343.69;5083901;28;20521;-79
2023/10/01 11:49:32;;;;;;;13.63;7.47;;;;;;;27.66;29.29;95345.06;5084208;28;20101;-79
2023/10/01 11:52:05;;;;;;;14.15;8.02;;;;;;;27.44;30.05;95343.38;5085137;28;20149;-80
2023/10/01 11:54:43;;;;;;;13.70;8.07;;;;;;;27.23;30.67;95335.50;5088686;28;20032;-79
2023/10/01 11:57:31;;;;;;;11.00;7.00;;;;;;;27.03;30.98;95344.53;5072435;28;20038;-79
2023/10/01 11:59:58;;;;;;;14.57;7.53;;;;;;;26.78;32.16;95343.13;5089267;28;20070;-79
2023/10/01 12:02:43;;;;;;;12.73;7.82;;;;;;;26.61;33.44;95340.53;5071958;28;20031;-80
2023/10/01 12:05:13;;;;;;;11.30;7.32;;;;;;;26.38;34.12;95345.69;5072846;28;20032;-79
2023/10/01 12:07:43;;;;;;;16.23;7.78;;;;;;;26.04;34.84;95351.00;5071975;28;20035;-79
2023/10/01 12:10:31;;;;;;;12.98;7.93;;;;;;;25.78;36.02;95340.25;5086915;28;20501;-79
2023/10/01 12:12:57;;;;;;;10.90;7.22;;;;;;;25.64;36.24;95339.38;5090724;28;20051;-80
2023/10/01 12:15:35;;;;;;;13.52;7.18;;;;;;;25.45;35.99;95332.88;5087444;28;20123;-80
2023/10/01 12:18:08;;;;;;;13.13;7.63;;;;;;;25.30;36.67;95331.25;5087526;28;20436;-80
2023/10/01 12:20:47;;;;;;;12.25;7.80;;;;;;;25.17;36.83;95328.25;5088180;28;20306;-79
2023/10/01 12:23:14;;;;;;;12.95;7.57;;;;;;;25.08;36.99;95320.19;5087247;28;20031;-80
2023/10/01 12:28:32;;;;;;;12.27;7.60;;;;;;;24.76;36.83;95325.50;5040836;28;20048;-79
2023/10/01 12:30:58;;;;;;;11.70;7.88;;;;;;;24.72;37.15;95320.16;5070339;28;20028;-81
2023/10/01 12:33:24;;;;;;;11.50;7.45;;;;;;;24.72;37.51;95325.03;5085114;28;20024;-80
2023/10/01 12:35:50;;;;;;;12.65;7.45;;;;;;;24.64;36.56;95314.31;5087057;28;20035;-80
2023/10/01 12:40:41;;;;;;;10.45;6.88;;;;;;;24.57;35.65;95312.06;5086685;28;20074;-83
2023/10/01 12:44:11;;;;;;;13.18;7.82;;;;;;;24.44;35.99;95311.91;5088071;28;20458;-80